createdAt,value
2023-04-30T00:01:42.221Z,29.95
2023-04-30T00:06:48.044Z,26.58
2023-04-30T00:11:52.215Z,25.30
2023-04-30T00:16:56.839Z,20.60
2023-04-30T00:22:02.858Z,24.60
2023-04-30T00:27:07.394Z,22.70
2023-04-30T00:32:11.545Z,21.33
2023-04-30T00:37:17.089Z,23.05
2023-04-30T00:42:21.243Z,21.00
2023-04-30T00:47:25.659Z,21.17
2023-04-30T00:52:31.734Z,20.58
2023-04-30T00:57:37.134Z,26.77
2023-04-30T01:02:42.008Z,23.55
2023-04-30T01:07:47.968Z,28.02
2023-04-30T01:13:06.307Z,27.10
2023-04-30T01:18:14.979Z,22.00
2023-04-30T01:23:35.777Z,23.25
2023-04-30T01:28:44.324Z,19.25
2023-04-30T01:33:49.065Z,20.90
2023-04-30T01:39:21.187Z,20.27
2023-04-30T01:44:39.417Z,20.08
2023-04-30T01:49:53.561Z,22.05
2023-04-30T01:55:05.188Z,17.63
2023-04-30T02:00:12.295Z,21.98
2023-04-30T02:05:19.429Z,18.00
2023-04-30T02:10:26.630Z,15.85
2023-04-30T02:15:32.430Z,14.07
2023-04-30T02:20:36.886Z,16.80
2023-04-30T02:25:41.061Z,8.43
2023-04-30T02:30:46.947Z,9.52
2023-04-30T02:35:55.300Z,11.50
2023-04-30T02:40:59.838Z,17.27
2023-04-30T02:46:05.369Z,17.00
2023-04-30T02:51:09.962Z,18.23
2023-04-30T02:56:14.033Z,21.17
2023-04-30T03:01:19.875Z,17.92
2023-04-30T03:06:24.309Z,16.40
2023-04-30T03:11:29.059Z,18.48
2023-04-30T03:16:36.059Z,16.98
2023-04-30T03:21:40.354Z,16.25
2023-04-30T03:26:44.653Z,17.88
2023-04-30T03:31:50.642Z,19.20
2023-04-30T03:36:55.148Z,24.25
2023-04-30T03:41:59.749Z,14.18
2023-04-30T03:47:05.400Z,16.88
2023-04-30T03:52:10.334Z,18.40
2023-04-30T03:57:15.561Z,32.45
2023-04-30T04:02:21.772Z,21.13
2023-04-30T04:07:26.463Z,34.90
2023-04-30T04:12:31.300Z,45.08
2023-04-30T04:17:37.054Z,25.55
2023-04-30T04:22:41.328Z,27.73
2023-04-30T04:27:46.132Z,26.27
2023-04-30T04:32:54.155Z,23.23
2023-04-30T04:37:59.264Z,25.08
2023-04-30T04:43:03.826Z,17.27
2023-04-30T04:48:10.262Z,20.33
2023-04-30T04:53:14.932Z,17.33
2023-04-30T04:58:19.287Z,15.40
2023-04-30T05:03:25.245Z,16.45
2023-04-30T05:08:29.419Z,12.63
2023-04-30T05:13:33.660Z,15.02
2023-04-30T05:18:39.489Z,16.00
2023-04-30T05:23:43.913Z,12.88
2023-04-30T05:28:48.106Z,13.52
2023-04-30T05:33:53.817Z,11.90
2023-04-30T05:38:58.284Z,11.65
2023-04-30T05:44:05.160Z,11.73
2023-04-30T05:49:10.868Z,12.02
2023-04-30T05:54:15.328Z,12.65
2023-04-30T05:59:19.945Z,12.70
2023-04-30T06:04:25.573Z,10.93
2023-04-30T06:09:29.739Z,11.45
2023-04-30T06:14:33.943Z,10.93
2023-04-30T06:19:39.965Z,10.45
2023-04-30T06:24:44.356Z,10.43
2023-04-30T06:29:48.483Z,9.48
2023-04-30T06:34:54.192Z,8.38
2023-04-30T06:39:58.343Z,7.35
2023-04-30T06:45:02.846Z,7.95
2023-04-30T06:50:09.866Z,7.55
2023-04-30T06:55:14.039Z,7.13
2023-04-30T07:00:18.562Z,6.38
2023-04-30T07:05:24.866Z,5.50
2023-04-30T07:10:29.780Z,4.75
2023-04-30T07:15:35.536Z,5.28
2023-04-30T07:20:41.329Z,4.93
2023-04-30T07:25:46.283Z,5.78
2023-04-30T07:30:50.608Z,4.80
2023-04-30T07:35:56.826Z,5.72
2023-04-30T07:41:01.980Z,4.30
2023-04-30T07:46:06.620Z,4.90
2023-04-30T07:51:12.226Z,4.65
2023-04-30T07:56:16.700Z,6.10
2023-04-30T08:01:21.053Z,4.65
2023-04-30T08:06:27.758Z,4.50
2023-04-30T08:11:32.549Z,5.47
2023-04-30T08:16:37.112Z,4.85
2023-04-30T08:21:43.237Z,3.83
2023-04-30T08:26:47.630Z,4.50
2023-04-30T08:31:52.602Z,3.90
2023-04-30T08:36:58.623Z,16.90
2023-04-30T08:42:05.103Z,5.57
2023-04-30T08:47:10.422Z,10.35
2023-04-30T08:52:16.432Z,7.43
2023-04-30T08:57:20.613Z,14.80
2023-04-30T09:02:24.867Z,6.57
2023-04-30T09:07:35.148Z,5.22
2023-04-30T09:12:40.181Z,10.93
2023-04-30T09:17:44.895Z,4.88
2023-04-30T09:23:07.621Z,3.65
2023-04-30T09:28:13.276Z,17.70
2023-04-30T09:33:17.889Z,4.03
2023-04-30T09:38:31.245Z,29.95
2023-04-30T09:43:35.661Z,13.95
2023-04-30T09:48:43.381Z,10.05
2023-04-30T09:53:49.303Z,11.15
2023-04-30T09:58:54.879Z,3.80
2023-04-30T10:03:59.714Z,5.05
2023-04-30T10:09:08.221Z,4.13
2023-04-30T10:14:14.352Z,4.13
2023-04-30T10:19:23.302Z,6.30
2023-04-30T10:24:28.998Z,3.35
2023-04-30T10:29:33.920Z,9.93
2023-04-30T10:34:51.929Z,22.17
2023-04-30T10:39:57.882Z,15.13
2023-04-30T10:45:03.966Z,4.97
2023-04-30T10:50:11.059Z,3.35
2023-04-30T10:55:19.663Z,5.57
2023-04-30T11:00:28.459Z,7.80
2023-04-30T11:05:38.188Z,10.87
2023-04-30T11:16:05.824Z,7.65
2023-04-30T11:21:11.138Z,10.98
2023-04-30T11:26:16.902Z,5.68
2023-04-30T11:31:22.239Z,5.25
2023-04-30T11:36:29.873Z,3.53
2023-04-30T11:41:42.415Z,3.00
2023-04-30T11:46:47.424Z,10.07
2023-04-30T11:51:52.716Z,18.42
2023-04-30T11:57:04.093Z,7.40
2023-04-30T12:02:08.703Z,21.60
2023-04-30T12:07:13.668Z,11.55
2023-04-30T12:12:28.572Z,12.82
2023-04-30T12:17:34.489Z,10.10
2023-04-30T12:22:39.135Z,7.65
2023-04-30T12:27:47.902Z,11.00
2023-04-30T12:32:53.574Z,4.03
2023-04-30T12:38:05.560Z,3.40
2023-04-30T12:43:11.264Z,2.30
2023-04-30T12:48:17.449Z,20.40
2023-04-30T12:53:21.907Z,3.60
2023-04-30T12:58:32.802Z,11.85
2023-04-30T13:03:37.579Z,3.03
2023-04-30T13:08:53.897Z,4.57
2023-04-30T13:14:03.871Z,6.25
2023-04-30T13:19:08.412Z,2.83
2023-04-30T13:24:12.684Z,9.93
2023-04-30T13:29:21.115Z,11.05
2023-04-30T13:34:25.490Z,7.03
2023-04-30T13:39:29.777Z,9.98
2023-04-30T13:44:36.082Z,4.40
2023-04-30T13:49:40.516Z,3.17
2023-04-30T13:54:46.465Z,10.15
2023-04-30T13:59:52.982Z,3.10
2023-04-30T14:05:05.716Z,2.42
2023-04-30T14:10:10.813Z,4.15
2023-04-30T14:15:16.679Z,3.42
2023-04-30T14:20:20.864Z,2.50
2023-04-30T14:25:25.049Z,3.00
2023-04-30T14:30:30.590Z,3.33
2023-04-30T14:35:35.090Z,4.38
2023-04-30T14:40:39.806Z,2.67
2023-04-30T14:45:46.105Z,1.92
2023-04-30T14:50:50.754Z,2.15
2023-04-30T14:55:55.183Z,2.28
2023-04-30T15:01:01.173Z,2.50
2023-04-30T15:06:05.612Z,2.10
2023-04-30T15:11:10.946Z,2.20
2023-04-30T15:16:17.323Z,2.17
2023-04-30T15:21:21.557Z,2.03
2023-04-30T15:26:26.138Z,2.13
2023-04-30T15:31:32.993Z,2.20
2023-04-30T15:36:37.505Z,2.30
2023-04-30T15:41:41.726Z,2.00
2023-04-30T15:46:47.739Z,2.47
2023-04-30T15:51:53.277Z,2.70
2023-04-30T15:56:58.593Z,2.10
2023-04-30T16:02:04.588Z,1.73
2023-04-30T16:07:09.198Z,2.20
2023-04-30T16:12:13.788Z,2.25
2023-04-30T16:17:19.386Z,1.90
2023-04-30T16:22:24.609Z,2.47
2023-04-30T16:27:28.992Z,2.83
2023-04-30T16:32:34.882Z,19.98
2023-04-30T16:37:39.122Z,17.55
2023-04-30T16:42:44.098Z,2.88
2023-04-30T16:47:49.775Z,2.63
2023-04-30T16:52:54.151Z,10.30
2023-04-30T16:57:58.809Z,11.95
2023-04-30T17:03:04.980Z,5.60
2023-04-30T17:08:09.820Z,4.28
2023-04-30T17:13:14.351Z,16.08
2023-04-30T17:18:20.072Z,6.10
2023-04-30T17:23:25.758Z,10.07
2023-04-30T17:28:30.434Z,8.52
2023-04-30T17:33:35.976Z,5.20
2023-04-30T17:38:43.439Z,33.00
2023-04-30T17:43:47.739Z,9.27
2023-04-30T17:48:53.296Z,5.07
2023-04-30T17:53:57.822Z,16.33
2023-04-30T17:59:02.115Z,7.95
2023-04-30T18:04:10.478Z,6.57
2023-04-30T18:09:15.170Z,6.95
2023-04-30T18:14:19.679Z,4.03
2023-04-30T18:19:25.621Z,4.85
2023-04-30T18:24:30.029Z,9.10
2023-04-30T18:29:35.559Z,8.80
2023-04-30T18:34:41.399Z,10.80
2023-04-30T18:39:45.737Z,5.53
2023-04-30T18:44:49.886Z,6.13
2023-04-30T18:49:55.880Z,5.38
2023-04-30T18:55:01.214Z,13.20
2023-04-30T19:00:07.420Z,6.95
2023-04-30T19:05:12.957Z,13.13
2023-04-30T19:10:17.805Z,5.57
2023-04-30T19:15:25.157Z,6.20
2023-04-30T19:20:30.776Z,7.82
2023-04-30T19:25:34.991Z,5.55
2023-04-30T19:30:39.222Z,6.53
2023-04-30T19:35:44.859Z,9.13
2023-04-30T19:40:49.899Z,6.55
2023-04-30T19:45:55.732Z,12.52
2023-04-30T19:51:05.142Z,7.32
2023-04-30T20:01:14.139Z,7.78
2023-04-30T20:06:20.934Z,7.72
2023-04-30T20:11:25.193Z,9.32
2023-04-30T20:16:29.956Z,7.50
2023-04-30T20:21:35.802Z,7.40
2023-04-30T20:26:40.503Z,7.18
2023-04-30T20:31:44.697Z,8.30
2023-04-30T20:36:50.832Z,8.73
2023-04-30T20:41:55.348Z,8.02
2023-04-30T20:46:59.732Z,7.30
2023-04-30T20:52:06.180Z,7.47
2023-04-30T20:57:10.755Z,7.03
2023-04-30T21:02:14.958Z,8.27
2023-04-30T21:07:20.587Z,6.97
2023-04-30T21:12:24.826Z,8.65
2023-04-30T21:17:29.537Z,10.48
2023-04-30T21:22:35.245Z,7.35
2023-04-30T21:27:39.839Z,7.85
2023-04-30T21:32:45.509Z,10.18
2023-04-30T21:37:51.486Z,9.75
2023-04-30T21:42:56.065Z,10.05
2023-04-30T21:48:00.566Z,8.43
2023-04-30T21:53:06.493Z,9.25
2023-04-30T21:58:10.693Z,10.57
2023-04-30T22:03:16.260Z,11.38
2023-04-30T22:08:22.018Z,9.30
2023-04-30T22:13:26.485Z,10.07
2023-04-30T22:18:30.680Z,31.83
2023-04-30T22:23:36.935Z,11.65
2023-04-30T22:28:41.491Z,12.60
2023-04-30T22:33:48.072Z,9.82
2023-04-30T22:38:53.736Z,11.15
2023-04-30T22:43:57.915Z,24.77
2023-04-30T22:49:02.499Z,13.50
2023-04-30T22:54:08.274Z,11.30
2023-04-30T22:59:12.626Z,17.23
2023-04-30T23:04:17.062Z,14.13
2023-04-30T23:09:25.026Z,10.82
2023-04-30T23:14:29.914Z,15.88
2023-04-30T23:19:34.333Z,13.68
2023-04-30T23:24:41.458Z,18.67
2023-04-30T23:29:45.660Z,13.57
2023-04-30T23:34:50.057Z,12.52
2023-04-30T23:39:56.730Z,12.27
2023-04-30T23:45:01.261Z,13.10
2023-04-30T23:50:05.833Z,15.68
2023-04-30T23:55:12.397Z,15.10
